Campos Altos, Brazil
Current Conditions -  °F | °C
As of 12:00 PM on Wednesday 26 Nov 2014 (Local Time) from SBUR Reporting Station
Scattered Clouds Scattered Clouds  
Wind Chill: 77°   Ceiling: Unl
Heat Index: 79°   Visibility: 6mi
Dew Point: 64°   Wind: 14mph
Humidity: 65%   Direction: 340°NNW
Pressure: 29.94"   Gusts: NA
Location:  19.7°S, 46.17°W
Report Text: SBUR 261400Z 34012KT 9999 SCT025 SCT090 25/18 Q1014
Loading
Personal Weather Stations






























Interactive Weather Map New forecast layout! Learn more

10-Day Weather Forecast

Advertisements
Track Severe Weather on mobile